»·PEaware :: N713EG KWHP-KCRQ

N713EG :: KWHP-KCRQ

FLIGHT INFORMATION

Flight Status: Arrived
Operator: Privately registered:
United States
More flights under this callsign
Pilot: James G. (23650)
Aircraft: CESSNA 172 SKYHAWK
(C172)
More flights by this aircraft type
Origin: KWHP Whiteman
United States
Destination: KCRQ McClellan-Palomar
United States
More flights between these airports :: More routes between these airports
Route: +
File this flight plan on PilotEdge
Remarks: FF
Altitude:
(Current/Filed)
0ft
Speed:
(Current/Filed)
0kts
Departed: 08-Apr-20 11:34 AM
Arrived: 08-Apr-20 12:35 PM
Distance/Time
Traveled:
88nm/1:01
Distance/Time
To Go:
Arrived

Flight Plot

Page will automatically refresh every two minutes.


Map Options




Map Legend


Flown Route
Filed Route
Departure Airport
Arrival Airport
Navaid (VOR, NDB)
Fix

Horizontal Profiles

Position Reports

Time Latitude Longitude Heading Altitude Ground
Speed
08-Apr-20 11:24 34.259902 -118.412807 319 1010ft 0kts
08-Apr-20 11:25 34.259904 -118.412809 319 1010ft 0kts
08-Apr-20 11:26 34.259880 -118.413071 224 1010ft 0kts
08-Apr-20 11:27 34.259842 -118.413115 224 1010ft 0kts
08-Apr-20 11:28 34.259818 -118.413144 224 1010ft 0kts
08-Apr-20 11:29 34.259818 -118.413144 224 1010ft 0kts
08-Apr-20 11:30 34.259818 -118.413144 224 1010ft 0kts
08-Apr-20 11:31 34.259812 -118.413151 225 1010ft 0kts
08-Apr-20 11:32 34.262263 -118.415926 317 1010ft 18kts
08-Apr-20 11:32 34.263690 -118.417518 280 1010ft 3kts
08-Apr-20 11:34 34.251820 -118.405628 139 1323ft 78kts
08-Apr-20 11:35 34.234295 -118.395388 264 1710ft 86kts
08-Apr-20 11:35 34.240551 -118.416631 291 2121ft 80kts
08-Apr-20 11:37 34.248456 -118.448645 283 2474ft 96kts
08-Apr-20 11:38 34.237423 -118.474214 185 2429ft 108kts
08-Apr-20 11:38 34.212495 -118.475144 179 2449ft 108kts
08-Apr-20 11:39 34.181927 -118.474497 180 2379ft 111kts
08-Apr-20 11:41 34.147052 -118.477681 195 2403ft 107kts
08-Apr-20 11:41 34.124220 -118.488823 206 2425ft 105kts
08-Apr-20 11:42 34.103749 -118.504661 232 2425ft 76kts
08-Apr-20 11:43 34.088152 -118.516190 200 2427ft 58kts
08-Apr-20 11:44 34.069745 -118.518987 217 2648ft 97kts
08-Apr-20 11:45 34.048544 -118.537356 217 2474ft 84kts
08-Apr-20 11:46 34.034609 -118.528623 77 2461ft 93kts
08-Apr-20 11:47 34.040374 -118.495061 85 2480ft 107kts
08-Apr-20 11:48 34.023430 -118.469087 150 2487ft 108kts
08-Apr-20 11:49 33.997888 -118.448680 148 2486ft 110kts
08-Apr-20 11:50 33.984478 -118.418227 157 2476ft 109kts
08-Apr-20 11:51 33.955960 -118.418866 165 2477ft 108kts
08-Apr-20 11:52 33.929515 -118.407007 161 2449ft 93kts
08-Apr-20 11:53 33.906485 -118.394933 159 2433ft 89kts
08-Apr-20 11:54 33.882612 -118.381492 158 2449ft 99kts
08-Apr-20 11:55 33.857534 -118.366738 157 2452ft 101kts
08-Apr-20 11:56 33.832313 -118.351537 157 2453ft 101kts
08-Apr-20 11:57 33.807127 -118.336166 157 2453ft 101kts
08-Apr-20 11:58 33.785332 -118.312297 149 2474ft 118kts
08-Apr-20 11:59 33.757955 -118.290720 150 2472ft 114kts
08-Apr-20 12:00 33.731519 -118.269993 150 2471ft 113kts
08-Apr-20 12:01 33.705221 -118.249511 150 2471ft 112kts
08-Apr-20 12:02 33.678800 -118.228629 150 2468ft 115kts
08-Apr-20 12:03 33.652006 -118.207073 150 2468ft 116kts
08-Apr-20 12:04 33.629123 -118.178873 137 2466ft 117kts
08-Apr-20 12:05 33.606447 -118.150280 137 2465ft 117kts
08-Apr-20 12:06 33.583870 -118.121904 137 2465ft 117kts
08-Apr-20 12:07 33.561417 -118.093731 137 2464ft 116kts
08-Apr-20 12:08 33.539560 -118.065096 131 2463ft 116kts
08-Apr-20 12:09 33.520883 -118.033331 127 2463ft 116kts
08-Apr-20 12:10 33.503353 -118.000854 126 2462ft 115kts
08-Apr-20 12:11 33.486126 -117.968162 126 2462ft 115kts
08-Apr-20 12:12 33.468933 -117.935337 126 2465ft 117kts
08-Apr-20 12:13 33.451240 -117.901507 125 2470ft 120kts
08-Apr-20 12:14 33.433411 -117.867428 125 2470ft 121kts
08-Apr-20 12:15 33.415399 -117.833050 125 2469ft 122kts
08-Apr-20 12:16 33.397065 -117.798100 123 2471ft 124kts
08-Apr-20 12:17 33.379196 -117.762296 120 2473ft 125kts
08-Apr-20 12:18 33.361398 -117.726370 121 2475ft 125kts
08-Apr-20 12:19 33.343025 -117.691214 121 2477ft 124kts
08-Apr-20 12:20 33.323967 -117.656732 125 2478ft 123kts
08-Apr-20 12:21 33.304227 -117.623273 122 2478ft 123kts
08-Apr-20 12:22 33.286012 -117.588365 121 2479ft 123kts
08-Apr-20 12:23 33.267986 -117.553536 121 2480ft 123kts
08-Apr-20 12:24 33.249788 -117.518387 121 2483ft 124kts
08-Apr-20 12:25 33.231459 -117.483017 122 2486ft 125kts
08-Apr-20 12:26 33.213046 -117.447522 122 2490ft 125kts
08-Apr-20 12:27 33.195334 -117.413409 123 2492ft 125kts
08-Apr-20 12:28 33.178055 -117.379266 126 1949ft 110kts
08-Apr-20 12:29 33.161667 -117.350226 127 1724ft 96kts
08-Apr-20 12:30 33.147750 -117.324157 125 1655ft 95kts
08-Apr-20 12:31 33.135529 -117.293010 90 1447ft 112kts
08-Apr-20 12:32 33.139463 -117.261891 148 1301ft 71kts
08-Apr-20 12:33 33.128265 -117.279967 259 337ft 70kts
08-Apr-20 12:34 33.126357 -117.287389 108 334ft 5kts
08-Apr-20 12:35 33.126828 -117.283859 77 334ft 7kts
08-Apr-20 12:36 33.126542 -117.282901 175 334ft 0kts

Navigation Log

Ident Type
Flight plan parsing failed, navigation log unavailable